Terminal Aerodrome Forecast
Issued by NWS Amarillo, TX

Home | Current Version | Previous Version | Text Only | Print | Product List | Glossary On
Versions: 1 2 3 4 5 6 7 8 9 10 11 12 13 14 15 16
000
FTUS44 KAMA 262320
TAFAMA
TAF
KAMA 262320Z 2700/2724 12017KT P6SM FEW080
     FM270300 15008KT P6SM FEW250
     FM271200 22008KT P6SM FEW250
     FM272000 14008KT P6SM SCT090=

USA.gov is the U.S. government's official web portal to all federal, state and local government web resources and services.